Time;durP1;ratioP1;P1;durP2;ratioP2;P2;SDS_P1;SDS_P2;PMS_P1;PMS_P2;Temp;Humidity;BMP_temperature;BMP_pressure;BME280_temperature;BME280_humidity;BME280_pressure;Samples;Min_cycle;Max_cycle;Signal;HPM_P1;HPM_P2
2021/12/29 00:00:13;;;;;;;28.63;12.15;;;;;;;;;;5028992;28;20040;-54
2021/12/29 00:02:39;;;;;;;21.98;10.48;;;;;;;;;;5029847;28;20560;-53
2021/12/29 00:05:05;;;;;;;22.70;11.02;;;;;;;;;;5026860;28;20037;-55
2021/12/29 00:07:31;;;;;;;28.13;11.77;;;;;;;;;;5031166;28;20473;-52
2021/12/29 00:10:00;;;;;;;21.38;10.10;;;;;;;;;;5023752;28;20513;-52
2021/12/29 00:12:26;;;;;;;25.88;11.10;;;;;;;;;;5030953;28;20033;-51
2021/12/29 00:14:56;;;;;;;24.02;10.27;;;;;;;;;;5028325;28;20080;-54
2021/12/29 00:17:22;;;;;;;21.90;10.88;;;;;;;;;;5031591;28;20056;-51
2021/12/29 00:19:48;;;;;;;26.25;11.65;;;;;;;;;;5022158;28;20057;-53
2021/12/29 00:22:15;;;;;;;30.42;11.90;;;;;;;;;;5029172;28;20053;-51
2021/12/29 00:24:41;;;;;;;27.67;12.52;;;;;;;;;;5025203;28;20561;-52
2021/12/29 00:27:08;;;;;;;25.08;12.75;;;;;;;;;;5028581;28;20026;-53
2021/12/29 00:29:34;;;;;;;21.05;10.07;;;;;;;;;;5030526;28;20044;-52
2021/12/29 00:32:00;;;;;;;24.80;11.52;;;;;;;;;;5031059;28;20033;-51
2021/12/29 00:34:26;;;;;;;33.40;13.93;;;;;;;;;;5030970;28;20112;-52
2021/12/29 00:36:52;;;;;;;24.20;11.20;;;;;;;;;;5031391;28;20021;-54
2021/12/29 00:39:18;;;;;;;26.13;10.68;;;;;;;;;;5021732;28;20053;-52
2021/12/29 00:41:44;;;;;;;26.08;11.50;;;;;;;;;;5029904;28;20053;-52
2021/12/29 00:44:10;;;;;;;22.98;11.00;;;;;;;;;;5024858;28;20030;-50
2021/12/29 00:46:37;;;;;;;25.63;12.90;;;;;;;;;;5026551;28;20041;-50
2021/12/29 00:49:04;;;;;;;21.58;11.23;;;;;;;;;;5025368;28;20069;-50
2021/12/29 00:51:30;;;;;;;27.00;11.68;;;;;;;;;;5024771;28;20388;-50
2021/12/29 00:53:57;;;;;;;29.80;13.65;;;;;;;;;;5025951;28;20040;-54
2021/12/29 00:56:23;;;;;;;25.05;11.95;;;;;;;;;;5028680;28;20036;-54
2021/12/29 00:58:49;;;;;;;25.88;13.07;;;;;;;;;;5027909;28;20029;-55
2021/12/29 01:01:15;;;;;;;21.73;10.63;;;;;;;;;;5029741;28;20389;-52
2021/12/29 01:03:43;;;;;;;26.05;12.07;;;;;;;;;;5026503;28;20040;-54
2021/12/29 01:06:09;;;;;;;25.95;12.38;;;;;;;;;;5031789;28;20039;-52
2021/12/29 01:08:35;;;;;;;30.02;13.82;;;;;;;;;;5027242;28;20060;-53
2021/12/29 01:11:02;;;;;;;25.50;11.88;;;;;;;;;;5033985;28;20029;-51
2021/12/29 01:13:33;;;;;;;24.33;12.05;;;;;;;;;;5030042;28;20040;-53
2021/12/29 01:18:32;;;;;;;;;;;;;;;;;;5031706;28;20040;-54
2021/12/29 01:20:58;;;;;;;25.30;11.40;;;;;;;;;;5031499;28;19964;-56
2021/12/29 01:23:25;;;;;;;21.35;9.68;;;;;;;;;;5027895;28;20121;-55
2021/12/29 01:25:51;;;;;;;21.45;10.07;;;;;;;;;;5027125;28;20030;-52
2021/12/29 01:28:17;;;;;;;25.42;11.38;;;;;;;;;;5028066;28;20038;-51
2021/12/29 01:30:44;;;;;;;22.48;11.00;;;;;;;;;;5026436;28;20033;-51
2021/12/29 01:33:10;;;;;;;22.20;10.02;;;;;;;;;;5033378;28;20117;-53
2021/12/29 01:35:37;;;;;;;21.40;10.60;;;;;;;;;;5027487;28;20050;-50
2021/12/29 01:38:03;;;;;;;24.77;10.57;;;;;;;;;;5031632;28;20108;-52
2021/12/29 01:40:30;;;;;;;18.90;9.98;;;;;;;;;;5025421;28;20029;-49
2021/12/29 01:42:56;;;;;;;21.60;10.32;;;;;;;;;;5031444;28;20024;-51
2021/12/29 01:45:22;;;;;;;18.33;9.45;;;;;;;;;;5029617;28;20073;-50
2021/12/29 01:47:48;;;;;;;20.25;9.82;;;;;;;;;;5035142;28;20392;-52
2021/12/29 01:50:14;;;;;;;19.65;9.75;;;;;;;;;;5034965;28;20460;-51
2021/12/29 01:52:41;;;;;;;19.30;9.55;;;;;;;;;;5028050;28;20738;-54
2021/12/29 01:55:09;;;;;;;18.90;9.13;;;;;;;;;;5025852;28;20493;-52
2021/12/29 01:57:35;;;;;;;17.13;8.98;;;;;;;;;;5032519;28;20036;-51
2021/12/29 02:00:02;;;;;;;18.08;8.95;;;;;;;;;;5027756;28;20064;-54
2021/12/29 02:02:27;;;;;;;21.65;9.95;;;;;;;;;;5029559;28;20026;-57
2021/12/29 02:04:53;;;;;;;21.08;9.77;;;;;;;;;;5029372;28;20088;-55
2021/12/29 02:07:19;;;;;;;23.00;10.75;;;;;;;;;;5042102;28;20036;-55
2021/12/29 02:09:46;;;;;;;20.23;9.07;;;;;;;;;;5031668;28;20032;-56
2021/12/29 02:12:12;;;;;;;23.13;10.70;;;;;;;;;;5034976;28;20057;-57
2021/12/29 02:14:38;;;;;;;22.52;11.05;;;;;;;;;;5036989;28;20380;-57
2021/12/29 02:17:04;;;;;;;28.05;11.45;;;;;;;;;;5036317;28;20035;-57
2021/12/29 02:19:30;;;;;;;19.63;10.25;;;;;;;;;;5037070;28;20029;-57
2021/12/29 02:22:05;;;;;;;24.27;11.75;;;;;;;;;;5032284;28;20032;-57
2021/12/29 02:24:43;;;;;;;21.83;10.73;;;;;;;;;;5025403;28;20099;-54
2021/12/29 02:27:12;;;;;;;19.60;10.30;;;;;;;;;;5031526;28;20029;-57
2021/12/29 02:29:40;;;;;;;21.25;10.32;;;;;;;;;;5029859;28;20469;-57
2021/12/29 02:32:07;;;;;;;23.70;10.77;;;;;;;;;;5040938;28;20045;-56
2021/12/29 02:34:33;;;;;;;21.58;10.23;;;;;;;;;;5036022;28;20116;-53
2021/12/29 02:37:02;;;;;;;24.42;10.10;;;;;;;;;;5036024;28;20068;-55
2021/12/29 02:39:31;;;;;;;20.73;9.85;;;;;;;;;;5030122;28;20025;-57
2021/12/29 02:41:57;;;;;;;19.80;9.75;;;;;;;;;;5021894;28;20028;-57
2021/12/29 02:44:28;;;;;;;22.45;10.05;;;;;;;;;;5030708;28;20057;-55
2021/12/29 02:46:58;;;;;;;18.00;8.57;;;;;;;;;;5031167;28;20087;-56
2021/12/29 02:49:25;;;;;;;21.27;10.10;;;;;;;;;;5033721;28;20112;-55
2021/12/29 02:51:51;;;;;;;19.58;10.20;;;;;;;;;;5023298;28;20109;-52
2021/12/29 02:54:17;;;;;;;19.40;9.52;;;;;;;;;;5025101;28;20048;-55
2021/12/29 02:56:49;;;;;;;23.92;10.65;;;;;;;;;;5024945;28;20044;-57
2021/12/29 02:59:18;;;;;;;21.65;10.27;;;;;;;;;;5031597;28;20053;-56
2021/12/29 03:01:44;;;;;;;22.67;9.65;;;;;;;;;;5027313;28;20042;-56
2021/12/29 03:04:11;;;;;;;21.42;9.43;;;;;;;;;;5030447;28;20037;-55
2021/12/29 03:06:37;;;;;;;16.98;9.27;;;;;;;;;;5031372;28;20024;-57
2021/12/29 03:09:05;;;;;;;19.80;9.65;;;;;;;;;;5028762;28;20030;-57
2021/12/29 03:11:31;;;;;;;20.42;9.40;;;;;;;;;;5032987;28;20021;-56
2021/12/29 03:13:57;;;;;;;18.17;8.90;;;;;;;;;;5033091;28;20032;-56
2021/12/29 03:16:24;;;;;;;18.75;8.60;;;;;;;;;;5026648;28;20017;-57
2021/12/29 03:18:50;;;;;;;20.50;9.27;;;;;;;;;;5026900;28;20037;-57
2021/12/29 03:21:16;;;;;;;16.27;8.35;;;;;;;;;;5041951;28;20021;-57
2021/12/29 03:23:42;;;;;;;16.45;7.93;;;;;;;;;;5037540;28;20057;-57
2021/12/29 03:26:08;;;;;;;13.27;6.78;;;;;;;;;;5041489;28;20071;-56
2021/12/29 03:28:35;;;;;;;15.85;8.10;;;;;;;;;;5037943;28;20042;-57
2021/12/29 03:31:01;;;;;;;17.38;7.82;;;;;;;;;;5043901;28;20473;-55
2021/12/29 03:33:30;;;;;;;17.90;7.78;;;;;;;;;;5036526;28;20061;-57
2021/12/29 03:36:00;;;;;;;17.50;7.88;;;;;;;;;;5028521;28;20037;-55
2021/12/29 03:38:27;;;;;;;17.27;8.43;;;;;;;;;;5025984;28;20037;-56
2021/12/29 03:40:53;;;;;;;16.10;7.82;;;;;;;;;;5025448;28;20429;-57
2021/12/29 03:43:19;;;;;;;16.20;7.78;;;;;;;;;;5034322;28;20160;-57
2021/12/29 03:45:47;;;;;;;14.88;7.80;;;;;;;;;;5031316;28;20113;-57
2021/12/29 03:48:13;;;;;;;14.52;7.18;;;;;;;;;;5028614;28;20133;-54
2021/12/29 03:50:39;;;;;;;16.38;7.80;;;;;;;;;;5027501;28;20045;-57
2021/12/29 03:53:06;;;;;;;17.17;7.97;;;;;;;;;;5026832;28;20085;-57
2021/12/29 03:55:32;;;;;;;15.35;7.85;;;;;;;;;;5026381;28;20038;-55
2021/12/29 03:57:58;;;;;;;15.38;8.15;;;;;;;;;;5027025;28;20028;-56
2021/12/29 04:00:25;;;;;;;17.55;8.20;;;;;;;;;;5026426;28;20034;-56
2021/12/29 04:02:51;;;;;;;13.90;7.25;;;;;;;;;;5031831;28;20105;-57
2021/12/29 04:05:19;;;;;;;15.50;7.03;;;;;;;;;;5030527;28;20528;-55
2021/12/29 04:07:45;;;;;;;16.40;7.65;;;;;;;;;;5029548;28;20041;-56
2021/12/29 04:10:11;;;;;;;15.20;7.55;;;;;;;;;;5025044;28;20420;-56
2021/12/29 04:12:41;;;;;;;14.38;6.93;;;;;;;;;;5029627;28;20094;-54
2021/12/29 04:15:08;;;;;;;16.38;7.68;;;;;;;;;;5028250;28;20042;-55
2021/12/29 04:17:37;;;;;;;15.20;6.80;;;;;;;;;;5033838;28;20659;-57
2021/12/29 04:22:56;;;;;;;13.52;7.47;;;;;;;;;;5029061;28;20090;-57
2021/12/29 04:25:24;;;;;;;15.27;7.63;;;;;;;;;;5025009;28;20038;-58
2021/12/29 04:27:51;;;;;;;14.93;6.72;;;;;;;;;;5026192;28;20029;-56
2021/12/29 04:30:17;;;;;;;16.90;7.65;;;;;;;;;;5024532;28;20036;-57
2021/12/29 04:32:43;;;;;;;15.07;7.22;;;;;;;;;;5027365;28;20033;-57
2021/12/29 04:35:09;;;;;;;17.88;7.10;;;;;;;;;;5027762;28;20103;-56
2021/12/29 04:37:35;;;;;;;13.40;6.57;;;;;;;;;;5025410;28;20050;-56
2021/12/29 04:40:01;;;;;;;15.98;7.45;;;;;;;;;;5032849;28;20017;-56
2021/12/29 04:42:27;;;;;;;13.88;7.53;;;;;;;;;;5037032;28;20029;-55
2021/12/29 04:44:53;;;;;;;16.15;7.15;;;;;;;;;;5025182;28;20045;-56
2021/12/29 04:47:19;;;;;;;13.98;6.72;;;;;;;;;;5031368;28;20521;-57
2021/12/29 04:49:45;;;;;;;14.88;6.63;;;;;;;;;;5023750;28;20440;-57
2021/12/29 04:52:13;;;;;;;11.52;6.47;;;;;;;;;;5026222;28;20038;-56
2021/12/29 04:54:39;;;;;;;13.98;6.85;;;;;;;;;;5030196;28;20029;-55
2021/12/29 04:57:06;;;;;;;12.52;6.50;;;;;;;;;;5026813;28;20481;-56
2021/12/29 04:59:32;;;;;;;12.70;6.20;;;;;;;;;;5030227;28;20083;-55
2021/12/29 05:01:58;;;;;;;14.90;6.43;;;;;;;;;;5030258;28;20072;-55
2021/12/29 05:04:32;;;;;;;10.88;6.07;;;;;;;;;;5029501;28;20513;-55
2021/12/29 05:09:43;;;;;;;12.38;6.07;;;;;;;;;;5027890;28;20373;-56
2021/12/29 05:12:09;;;;;;;11.77;6.35;;;;;;;;;;5027552;28;20018;-57
2021/12/29 05:14:35;;;;;;;12.85;6.28;;;;;;;;;;5031310;28;20097;-55
2021/12/29 05:17:02;;;;;;;12.40;5.40;;;;;;;;;;5023468;28;20109;-55
2021/12/29 05:19:28;;;;;;;12.18;6.15;;;;;;;;;;5029282;28;20053;-54
2021/12/29 05:21:54;;;;;;;9.98;5.88;;;;;;;;;;5029062;28;20739;-56
2021/12/29 05:24:20;;;;;;;11.45;5.50;;;;;;;;;;5030993;28;20032;-55
2021/12/29 05:26:46;;;;;;;11.52;5.50;;;;;;;;;;5029051;28;20140;-55
2021/12/29 05:29:12;;;;;;;11.32;5.85;;;;;;;;;;5033805;28;20026;-54
2021/12/29 05:31:38;;;;;;;14.95;6.50;;;;;;;;;;5035341;28;20521;-57
2021/12/29 05:34:04;;;;;;;13.32;6.57;;;;;;;;;;5029945;28;20018;-53
2021/12/29 05:36:30;;;;;;;11.40;5.88;;;;;;;;;;5034534;28;20107;-52
2021/12/29 05:38:57;;;;;;;12.40;5.72;;;;;;;;;;5032482;28;20033;-57
2021/12/29 05:41:23;;;;;;;9.88;6.03;;;;;;;;;;5027067;28;20379;-57
2021/12/29 05:43:49;;;;;;;12.30;6.93;;;;;;;;;;5035720;28;20030;-57
2021/12/29 05:46:15;;;;;;;14.90;6.65;;;;;;;;;;5033316;28;20491;-57
2021/12/29 05:48:41;;;;;;;8.65;4.63;;;;;;;;;;5034367;28;20064;-58
2021/12/29 05:51:07;;;;;;;16.90;6.47;;;;;;;;;;5031154;28;20117;-58
2021/12/29 05:53:33;;;;;;;12.93;6.35;;;;;;;;;;5028307;28;20562;-56
2021/12/29 05:55:59;;;;;;;13.07;5.55;;;;;;;;;;5029362;28;20026;-57
2021/12/29 05:58:25;;;;;;;14.30;6.15;;;;;;;;;;5025682;28;20046;-55
2021/12/29 06:00:51;;;;;;;13.25;6.00;;;;;;;;;;5027007;28;20022;-54
2021/12/29 06:03:19;;;;;;;9.40;5.20;;;;;;;;;;5031296;28;20609;-57
2021/12/29 06:05:45;;;;;;;11.10;5.40;;;;;;;;;;5031941;28;20516;-57
2021/12/29 06:08:11;;;;;;;9.90;5.18;;;;;;;;;;5033248;28;20025;-56
2021/12/29 06:10:37;;;;;;;11.25;5.47;;;;;;;;;;5030365;28;20167;-56
2021/12/29 06:13:03;;;;;;;9.98;5.18;;;;;;;;;;5029316;28;20581;-55
2021/12/29 06:15:29;;;;;;;11.40;5.88;;;;;;;;;;5030751;28;20021;-57
2021/12/29 06:17:55;;;;;;;15.10;6.93;;;;;;;;;;5033396;28;20026;-57
2021/12/29 06:20:21;;;;;;;14.85;6.72;;;;;;;;;;5028186;28;20026;-55
2021/12/29 06:22:48;;;;;;;11.50;5.80;;;;;;;;;;5027934;28;20454;-55
2021/12/29 06:25:15;;;;;;;12.15;6.25;;;;;;;;;;5030713;28;20112;-57
2021/12/29 06:27:41;;;;;;;13.32;5.28;;;;;;;;;;5027722;28;20029;-55
2021/12/29 06:30:08;;;;;;;13.15;6.43;;;;;;;;;;5022570;28;20469;-57
2021/12/29 06:32:34;;;;;;;10.25;5.43;;;;;;;;;;5027460;28;20083;-56
2021/12/29 06:35:00;;;;;;;12.80;5.38;;;;;;;;;;5021236;28;20568;-57
2021/12/29 06:37:26;;;;;;;12.48;5.25;;;;;;;;;;5028170;28;20067;-57
2021/12/29 06:39:52;;;;;;;9.80;5.18;;;;;;;;;;5032816;28;20482;-57
2021/12/29 06:42:19;;;;;;;11.63;5.85;;;;;;;;;;5018450;28;20026;-57
2021/12/29 06:44:45;;;;;;;7.85;4.63;;;;;;;;;;5031770;28;20409;-56
2021/12/29 06:47:12;;;;;;;13.80;5.57;;;;;;;;;;5025266;28;20704;-56
2021/12/29 06:49:38;;;;;;;11.25;5.05;;;;;;;;;;5028615;28;20029;-57
2021/12/29 06:52:05;;;;;;;9.98;5.20;;;;;;;;;;5029016;28;20032;-57
2021/12/29 06:54:31;;;;;;;9.88;5.38;;;;;;;;;;5020451;28;20030;-56
2021/12/29 06:56:58;;;;;;;13.00;5.15;;;;;;;;;;5029393;28;20517;-57
2021/12/29 06:59:24;;;;;;;12.07;5.18;;;;;;;;;;5030226;28;20026;-56
2021/12/29 07:01:50;;;;;;;15.50;6.25;;;;;;;;;;5029686;28;20031;-57
2021/12/29 07:04:16;;;;;;;11.32;4.93;;;;;;;;;;5030548;28;20033;-54
2021/12/29 07:06:42;;;;;;;9.35;5.80;;;;;;;;;;5029754;28;20036;-55
2021/12/29 07:09:08;;;;;;;10.82;5.18;;;;;;;;;;5024815;28;20072;-56
2021/12/29 07:11:36;;;;;;;11.32;5.38;;;;;;;;;;5030465;28;20029;-55
2021/12/29 07:14:03;;;;;;;12.15;5.72;;;;;;;;;;5021135;28;20045;-56
2021/12/29 07:16:30;;;;;;;11.75;5.65;;;;;;;;;;5028115;28;20033;-57
2021/12/29 07:18:56;;;;;;;15.52;6.10;;;;;;;;;;5022540;28;20131;-56
2021/12/29 07:21:22;;;;;;;13.77;6.45;;;;;;;;;;5034725;28;20136;-57
2021/12/29 07:23:48;;;;;;;14.65;6.63;;;;;;;;;;5029260;28;20029;-55
2021/12/29 07:26:14;;;;;;;12.93;6.25;;;;;;;;;;5034350;28;20036;-57
2021/12/29 07:28:40;;;;;;;10.68;5.55;;;;;;;;;;5028642;28;20128;-57
2021/12/29 07:31:06;;;;;;;14.30;5.90;;;;;;;;;;5028468;28;20109;-56
2021/12/29 07:33:33;;;;;;;13.35;6.68;;;;;;;;;;5030744;28;20037;-57
2021/12/29 07:35:59;;;;;;;14.82;5.63;;;;;;;;;;5030673;28;20044;-57
2021/12/29 07:38:25;;;;;;;9.93;5.07;;;;;;;;;;5031621;28;20056;-56
2021/12/29 07:40:51;;;;;;;11.82;6.25;;;;;;;;;;5026063;28;20026;-57
2021/12/29 07:43:18;;;;;;;16.45;6.18;;;;;;;;;;5032323;28;20025;-56
2021/12/29 07:45:44;;;;;;;10.73;5.75;;;;;;;;;;5024818;28;20067;-56
2021/12/29 07:48:10;;;;;;;13.55;6.55;;;;;;;;;;5027906;28;20022;-56
2021/12/29 07:50:37;;;;;;;12.80;5.43;;;;;;;;;;5026348;28;20029;-56
2021/12/29 07:53:04;;;;;;;13.07;5.15;;;;;;;;;;5025707;28;20047;-52
2021/12/29 07:55:30;;;;;;;15.38;6.53;;;;;;;;;;5025898;28;20029;-56
2021/12/29 07:57:56;;;;;;;14.13;6.32;;;;;;;;;;5022615;28;20044;-55
2021/12/29 08:00:22;;;;;;;14.05;6.68;;;;;;;;;;5021614;28;20136;-56
2021/12/29 08:02:50;;;;;;;9.13;5.65;;;;;;;;;;5031719;28;20450;-57
2021/12/29 08:05:16;;;;;;;11.95;5.18;;;;;;;;;;5022082;28;20108;-57
2021/12/29 08:07:42;;;;;;;9.80;5.15;;;;;;;;;;5026073;28;20362;-57
2021/12/29 08:10:08;;;;;;;8.15;4.75;;;;;;;;;;5031479;28;20037;-57
2021/12/29 08:12:34;;;;;;;12.07;5.43;;;;;;;;;;5022566;28;20040;-55
2021/12/29 08:15:00;;;;;;;10.93;5.30;;;;;;;;;;5021141;28;20026;-56
2021/12/29 08:17:26;;;;;;;11.23;5.10;;;;;;;;;;5030588;28;20025;-56
2021/12/29 08:19:53;;;;;;;11.90;5.00;;;;;;;;;;5024996;28;20072;-56
2021/12/29 08:22:19;;;;;;;10.63;5.22;;;;;;;;;;5029795;28;20100;-57
2021/12/29 08:24:45;;;;;;;10.45;5.32;;;;;;;;;;5025426;28;20034;-57
2021/12/29 08:27:11;;;;;;;15.25;5.63;;;;;;;;;;5024242;28;20094;-54
2021/12/29 08:29:38;;;;;;;12.50;5.40;;;;;;;;;;5027845;28;20030;-57
2021/12/29 08:32:04;;;;;;;15.13;6.25;;;;;;;;;;5030768;28;20474;-57
2021/12/29 08:34:30;;;;;;;11.73;5.47;;;;;;;;;;5031355;28;20113;-53
2021/12/29 08:36:56;;;;;;;14.73;5.65;;;;;;;;;;5028616;28;20109;-58
2021/12/29 08:39:23;;;;;;;15.15;5.38;;;;;;;;;;5025595;28;20061;-57
2021/12/29 08:41:50;;;;;;;11.77;5.07;;;;;;;;;;5030803;28;20037;-57
2021/12/29 08:44:17;;;;;;;14.70;6.22;;;;;;;;;;5021200;28;20028;-57
2021/12/29 08:46:43;;;;;;;12.27;5.80;;;;;;;;;;5030130;28;20525;-56
2021/12/29 08:49:09;;;;;;;13.48;6.70;;;;;;;;;;5032813;28;20095;-58
2021/12/29 08:51:35;;;;;;;12.60;5.57;;;;;;;;;;5024252;28;20116;-58
2021/12/29 08:54:01;;;;;;;10.93;5.72;;;;;;;;;;5026078;28;20083;-56
2021/12/29 08:56:27;;;;;;;12.52;5.85;;;;;;;;;;5029773;28;20033;-57
2021/12/29 08:58:54;;;;;;;13.00;6.03;;;;;;;;;;5027359;28;20029;-56
2021/12/29 09:01:21;;;;;;;13.25;5.57;;;;;;;;;;5023396;28;20108;-55
2021/12/29 09:03:48;;;;;;;11.32;5.75;;;;;;;;;;5031840;28;20148;-56
2021/12/29 09:06:15;;;;;;;11.98;5.85;;;;;;;;;;5024474;28;20041;-55
2021/12/29 09:08:41;;;;;;;15.60;6.07;;;;;;;;;;5029479;28;20064;-56
2021/12/29 09:11:07;;;;;;;13.63;5.55;;;;;;;;;;5026600;28;20037;-57
2021/12/29 09:13:33;;;;;;;12.98;6.40;;;;;;;;;;5030494;28;20049;-57
2021/12/29 09:16:00;;;;;;;12.60;5.90;;;;;;;;;;5033275;28;20621;-55
2021/12/29 09:18:27;;;;;;;10.95;5.28;;;;;;;;;;5033486;28;20083;-57
2021/12/29 09:20:53;;;;;;;10.77;5.30;;;;;;;;;;5021177;28;20339;-57
2021/12/29 09:23:19;;;;;;;10.63;5.72;;;;;;;;;;5032081;28;20727;-57
2021/12/29 09:25:47;;;;;;;12.77;5.60;;;;;;;;;;5027763;28;20041;-56
2021/12/29 09:28:14;;;;;;;13.93;5.65;;;;;;;;;;5025506;28;20025;-56
2021/12/29 09:30:43;;;;;;;10.32;5.72;;;;;;;;;;5029413;28;20026;-52
2021/12/29 09:33:09;;;;;;;11.70;5.53;;;;;;;;;;5033768;28;20040;-55
2021/12/29 09:35:35;;;;;;;12.85;6.20;;;;;;;;;;5036208;28;20134;-55
2021/12/29 09:38:02;;;;;;;13.02;5.80;;;;;;;;;;5032042;28;20033;-56
2021/12/29 09:40:28;;;;;;;10.63;5.60;;;;;;;;;;5029147;28;20351;-55
2021/12/29 09:42:54;;;;;;;13.88;5.30;;;;;;;;;;5034728;28;20026;-58
2021/12/29 09:45:21;;;;;;;9.98;5.35;;;;;;;;;;5034400;28;20029;-56
2021/12/29 09:47:47;;;;;;;15.13;6.72;;;;;;;;;;5032176;28;20030;-58
2021/12/29 09:50:14;;;;;;;11.25;6.15;;;;;;;;;;5032148;28;20531;-57
2021/12/29 09:52:41;;;;;;;14.48;6.00;;;;;;;;;;5032724;28;20093;-57
2021/12/29 09:55:10;;;;;;;15.68;6.38;;;;;;;;;;5035452;28;20029;-57
2021/12/29 09:57:37;;;;;;;15.18;5.93;;;;;;;;;;5029896;28;20037;-54
2021/12/29 10:00:06;;;;;;;12.98;5.63;;;;;;;;;;5035237;28;20108;-53
2021/12/29 10:02:32;;;;;;;18.05;6.35;;;;;;;;;;5028999;28;20040;-57
2021/12/29 10:04:59;;;;;;;12.10;5.57;;;;;;;;;;5026133;28;20473;-58
2021/12/29 10:07:26;;;;;;;11.52;5.50;;;;;;;;;;5032747;28;20063;-53
2021/12/29 10:09:52;;;;;;;12.95;6.03;;;;;;;;;;5033034;28;20037;-56
2021/12/29 10:12:21;;;;;;;15.35;6.28;;;;;;;;;;5033587;28;20108;-57
2021/12/29 10:14:49;;;;;;;12.38;5.47;;;;;;;;;;5032681;28;20037;-57
2021/12/29 10:17:15;;;;;;;15.73;6.25;;;;;;;;;;5030228;28;20025;-57
2021/12/29 10:19:41;;;;;;;14.20;6.60;;;;;;;;;;5033258;28;20022;-55
2021/12/29 10:22:07;;;;;;;13.02;5.93;;;;;;;;;;5032606;28;20021;-57
2021/12/29 10:24:34;;;;;;;11.80;5.75;;;;;;;;;;5032441;28;20060;-57
2021/12/29 10:27:00;;;;;;;17.83;6.25;;;;;;;;;;5032673;28;20033;-55
2021/12/29 10:29:27;;;;;;;14.63;7.05;;;;;;;;;;5028623;28;20026;-58
2021/12/29 10:31:58;;;;;;;13.85;6.05;;;;;;;;;;5034620;28;20436;-56
2021/12/29 10:34:26;;;;;;;15.73;5.82;;;;;;;;;;5034089;28;20029;-56
2021/12/29 10:36:54;;;;;;;15.57;7.40;;;;;;;;;;5032259;28;20029;-56
2021/12/29 10:39:21;;;;;;;15.23;6.68;;;;;;;;;;5036528;28;20029;-55
2021/12/29 10:41:58;;;;;;;13.90;6.30;;;;;;;;;;5038121;28;20029;-53
2021/12/29 10:44:26;;;;;;;15.20;7.57;;;;;;;;;;5029543;28;20026;-55
2021/12/29 10:46:55;;;;;;;14.77;6.72;;;;;;;;;;5037098;28;20048;-55
2021/12/29 10:49:21;;;;;;;16.52;6.80;;;;;;;;;;5037328;28;20108;-55
2021/12/29 10:51:47;;;;;;;16.33;8.02;;;;;;;;;;5037707;28;20453;-56
2021/12/29 10:54:19;;;;;;;19.27;8.23;;;;;;;;;;5031452;28;20022;-57
2021/12/29 10:56:47;;;;;;;14.02;6.55;;;;;;;;;;5036673;28;20033;-57
2021/12/29 10:59:22;;;;;;;13.07;6.82;;;;;;;;;;5034480;28;20049;-57
2021/12/29 11:01:49;;;;;;;19.45;7.43;;;;;;;;;;5023968;28;20024;-58
2021/12/29 11:04:15;;;;;;;15.35;7.63;;;;;;;;;;5027577;28;20025;-58
2021/12/29 11:06:43;;;;;;;14.95;6.85;;;;;;;;;;5029727;28;20030;-56
2021/12/29 11:09:11;;;;;;;17.98;8.02;;;;;;;;;;5037544;28;20021;-57
2021/12/29 11:11:44;;;;;;;17.33;8.30;;;;;;;;;;5036012;28;20785;-57
2021/12/29 11:14:12;;;;;;;13.93;6.75;;;;;;;;;;5030274;28;20087;-54
2021/12/29 11:16:39;;;;;;;17.67;7.72;;;;;;;;;;5034240;28;20033;-58
2021/12/29 11:19:05;;;;;;;17.65;7.78;;;;;;;;;;5027489;28;20037;-56
2021/12/29 11:21:36;;;;;;;16.48;7.50;;;;;;;;;;5029723;28;20068;-56
2021/12/29 11:24:15;;;;;;;18.40;6.75;;;;;;;;;;5028709;28;20100;-56
2021/12/29 11:26:42;;;;;;;13.57;6.30;;;;;;;;;;5034797;28;20053;-58
2021/12/29 11:29:09;;;;;;;18.55;7.68;;;;;;;;;;5027812;28;20033;-56
2021/12/29 11:31:40;;;;;;;16.27;7.53;;;;;;;;;;5035366;28;20078;-58
2021/12/29 11:34:32;;;;;;;17.83;7.55;;;;;;;;;;5033145;28;20041;-56
2021/12/29 11:37:11;;;;;;;14.60;7.28;;;;;;;;;;5031788;28;20405;-58
2021/12/29 11:39:38;;;;;;;15.38;7.90;;;;;;;;;;5032122;28;20500;-56
2021/12/29 11:42:05;;;;;;;16.92;7.30;;;;;;;;;;5031197;28;20088;-56
2021/12/29 11:44:31;;;;;;;17.98;8.23;;;;;;;;;;5032010;28;20025;-57
2021/12/29 11:46:57;;;;;;;16.88;7.82;;;;;;;;;;5027915;28;20037;-57
2021/12/29 11:49:24;;;;;;;21.98;9.25;;;;;;;;;;5026722;28;20037;-55
2021/12/29 11:51:58;;;;;;;20.17;9.32;;;;;;;;;;5023488;28;20026;-57
2021/12/29 11:54:47;;;;;;;20.27;8.70;;;;;;;;;;5027594;28;20421;-55
2021/12/29 11:57:15;;;;;;;20.65;9.27;;;;;;;;;;5026798;28;20487;-58
2021/12/29 11:59:41;;;;;;;23.10;9.57;;;;;;;;;;5024850;28;20557;-56
2021/12/29 12:02:07;;;;;;;22.83;9.45;;;;;;;;;;5032340;28;20033;-55
2021/12/29 12:04:34;;;;;;;22.30;8.80;;;;;;;;;;5025788;28;20096;-58
2021/12/29 12:07:04;;;;;;;23.55;9.88;;;;;;;;;;5033203;28;20526;-57
2021/12/29 12:09:43;;;;;;;21.92;10.13;;;;;;;;;;5034636;28;20036;-58
2021/12/29 12:12:09;;;;;;;24.55;9.60;;;;;;;;;;5029028;28;20046;-58
2021/12/29 12:14:43;;;;;;;22.70;9.98;;;;;;;;;;5022766;28;20088;-57
2021/12/29 12:17:25;;;;;;;20.95;9.27;;;;;;;;;;5019618;28;20116;-57
2021/12/29 12:20:06;;;;;;;23.10;9.18;;;;;;;;;;5030400;28;20036;-56
2021/12/29 12:22:52;;;;;;;27.17;10.73;;;;;;;;;;5028670;28;20034;-58
2021/12/29 12:25:29;;;;;;;22.92;9.10;;;;;;;;;;5020826;28;20060;-56
2021/12/29 12:28:01;;;;;;;23.58;8.90;;;;;;;;;;5032452;28;20406;-55
2021/12/29 12:30:27;;;;;;;19.40;9.07;;;;;;;;;;5033894;28;20167;-57
2021/12/29 12:32:58;;;;;;;23.48;9.75;;;;;;;;;;5026285;28;20031;-54
2021/12/29 12:35:32;;;;;;;22.40;9.27;;;;;;;;;;5033331;28;20057;-58
2021/12/29 12:37:58;;;;;;;19.75;9.05;;;;;;;;;;5033354;28;20030;-56
2021/12/29 12:40:27;;;;;;;21.30;9.57;;;;;;;;;;5034405;28;20030;-55
2021/12/29 12:43:06;;;;;;;22.40;9.63;;;;;;;;;;5034050;28;20056;-58
2021/12/29 12:45:33;;;;;;;17.63;7.78;;;;;;;;;;5031007;28;20029;-56
2021/12/29 12:48:04;;;;;;;19.42;8.48;;;;;;;;;;5031974;28;20046;-58
2021/12/29 12:50:31;;;;;;;19.80;7.90;;;;;;;;;;5028610;28;20112;-55
2021/12/29 12:52:57;;;;;;;22.35;9.65;;;;;;;;;;5025234;28;20035;-53
2021/12/29 12:55:24;;;;;;;20.83;9.20;;;;;;;;;;5030779;28;20470;-56
2021/12/29 12:57:50;;;;;;;19.63;9.18;;;;;;;;;;5033002;28;20021;-56
2021/12/29 13:00:19;;;;;;;19.77;8.18;;;;;;;;;;5032568;28;20125;-55
2021/12/29 13:02:53;;;;;;;21.85;8.57;;;;;;;;;;5033959;28;20036;-56
2021/12/29 13:05:21;;;;;;;23.20;8.85;;;;;;;;;;5031837;28;20047;-54
2021/12/29 13:07:52;;;;;;;19.00;8.13;;;;;;;;;;5032153;28;20037;-54
2021/12/29 13:10:30;;;;;;;20.13;8.65;;;;;;;;;;5038650;28;20084;-55
2021/12/29 13:13:01;;;;;;;19.45;8.05;;;;;;;;;;5028098;28;20025;-53
2021/12/29 13:15:34;;;;;;;20.48;8.60;;;;;;;;;;5039280;28;20041;-52
2021/12/29 13:18:01;;;;;;;;;;;;;;;;;;5034468;28;20492;-55
2021/12/29 13:20:27;;;;;;;19.27;7.93;;;;;;;;;;5042126;28;19952;-56
2021/12/29 13:22:53;;;;;;;19.70;9.35;;;;;;;;;;5033294;28;20208;-51
2021/12/29 13:25:24;;;;;;;21.05;9.10;;;;;;;;;;5029114;28;20029;-53
2021/12/29 13:28:01;;;;;;;18.73;8.13;;;;;;;;;;5040181;28;20120;-53
2021/12/29 13:30:28;;;;;;;23.08;8.63;;;;;;;;;;5042214;28;20048;-52
2021/12/29 13:32:56;;;;;;;18.52;8.82;;;;;;;;;;5030326;28;20079;-52
2021/12/29 13:35:28;;;;;;;19.80;8.20;;;;;;;;;;5034021;28;20045;-54
2021/12/29 13:37:56;;;;;;;20.63;8.88;;;;;;;;;;5031234;28;20049;-54
2021/12/29 13:40:32;;;;;;;21.38;8.90;;;;;;;;;;5043487;28;20404;-53
2021/12/29 13:42:58;;;;;;;22.52;8.57;;;;;;;;;;5032341;28;20029;-56
2021/12/29 13:45:26;;;;;;;18.67;7.88;;;;;;;;;;5033649;28;20382;-53
2021/12/29 13:47:52;;;;;;;21.55;8.30;;;;;;;;;;5030009;28;20032;-56
2021/12/29 13:50:18;;;;;;;19.75;7.57;;;;;;;;;;5025438;28;20151;-52
2021/12/29 13:53:01;;;;;;;21.83;8.07;;;;;;;;;;5028775;28;20052;-55
2021/12/29 13:55:29;;;;;;;18.85;7.63;;;;;;;;;;5021585;28;20099;-57
2021/12/29 13:57:57;;;;;;;19.02;7.88;;;;;;;;;;5027088;28;20367;-52
2021/12/29 14:00:23;;;;;;;18.83;8.43;;;;;;;;;;5033291;28;20553;-55
2021/12/29 14:02:49;;;;;;;21.30;8.85;;;;;;;;;;5033170;28;20107;-57
2021/12/29 14:05:15;;;;;;;20.38;8.77;;;;;;;;;;5033213;28;20037;-53
2021/12/29 14:07:41;;;;;;;20.75;8.82;;;;;;;;;;5032725;28;20029;-56
2021/12/29 14:10:08;;;;;;;17.55;8.50;;;;;;;;;;5022616;28;20100;-57
2021/12/29 14:12:36;;;;;;;22.20;8.52;;;;;;;;;;5027463;28;20029;-56
2021/12/29 14:15:05;;;;;;;23.08;8.50;;;;;;;;;;5032705;28;20654;-55
2021/12/29 14:17:37;;;;;;;21.45;8.70;;;;;;;;;;5032560;28;20429;-57
2021/12/29 14:20:07;;;;;;;20.52;8.80;;;;;;;;;;5032953;28;20033;-56
2021/12/29 14:22:33;;;;;;;24.35;8.73;;;;;;;;;;5028054;28;20025;-52
2021/12/29 14:25:07;;;;;;;23.58;8.85;;;;;;;;;;5023622;28;20033;-54
2021/12/29 14:27:34;;;;;;;19.88;8.38;;;;;;;;;;5034744;28;20041;-55
2021/12/29 14:30:00;;;;;;;21.98;8.43;;;;;;;;;;5029720;28;20382;-54
2021/12/29 14:32:26;;;;;;;20.45;8.00;;;;;;;;;;5025793;28;20469;-55
2021/12/29 14:34:55;;;;;;;18.25;8.63;;;;;;;;;;5031334;28;20049;-52
2021/12/29 14:37:23;;;;;;;22.77;9.85;;;;;;;;;;5027758;28;20033;-56